Time;durP1;ratioP1;P1;durP2;ratioP2;P2;SDS_P1;SDS_P2;PMS_P1;PMS_P2;Temp;Humidity;BMP_temperature;BMP_pressure;BME280_temperature;BME280_humidity;BME280_pressure;Samples;Min_cycle;Max_cycle;Signal;HPM_P1;HPM_P2
2021/04/01 00:01:07;;;;;;;15.60;11.50;;;;;;;;;;5004272;28;20454;-72
2021/04/01 00:03:33;;;;;;;16.92;12.32;;;;;;;;;;5011171;28;20396;-71
2021/04/01 00:05:59;;;;;;;16.77;11.70;;;;;;;;;;5007135;28;20409;-72
2021/04/01 00:08:26;;;;;;;15.63;11.32;;;;;;;;;;5016833;28;20401;-71
2021/04/01 00:10:53;;;;;;;15.73;11.13;;;;;;;;;;5012698;28;20916;-72
2021/04/01 00:13:19;;;;;;;18.38;11.18;;;;;;;;;;5006474;28;20500;-71
2021/04/01 00:15:46;;;;;;;17.55;11.40;;;;;;;;;;5015380;28;20898;-71
2021/04/01 00:18:14;;;;;;;14.85;10.88;;;;;;;;;;5009255;28;20458;-71
2021/04/01 00:20:41;;;;;;;14.20;10.15;;;;;;;;;;5013819;28;20463;-71
2021/04/01 00:23:07;;;;;;;12.77;10.60;;;;;;;;;;5018627;28;20507;-72
2021/04/01 00:25:33;;;;;;;15.30;10.53;;;;;;;;;;5008502;28;20407;-72
2021/04/01 00:28:00;;;;;;;17.33;10.90;;;;;;;;;;5011044;28;20480;-71
2021/04/01 00:30:26;;;;;;;12.60;9.88;;;;;;;;;;5015002;28;20405;-71
2021/04/01 00:32:53;;;;;;;16.40;10.53;;;;;;;;;;5024290;28;20391;-71
2021/04/01 00:35:19;;;;;;;14.48;9.90;;;;;;;;;;5022388;28;20405;-71
2021/04/01 00:37:45;;;;;;;14.52;9.88;;;;;;;;;;5000005;28;20409;-71
2021/04/01 00:40:12;;;;;;;15.07;10.25;;;;;;;;;;5012914;28;20403;-71
2021/04/01 00:42:38;;;;;;;15.60;10.02;;;;;;;;;;4996770;28;20409;-71
2021/04/01 00:45:07;;;;;;;16.70;9.73;;;;;;;;;;5004178;28;20482;-72
2021/04/01 00:47:34;;;;;;;13.10;9.90;;;;;;;;;;5014392;28;20393;-71
2021/04/01 00:50:00;;;;;;;16.10;10.27;;;;;;;;;;5005571;28;20890;-72
2021/04/01 00:52:26;;;;;;;13.65;9.60;;;;;;;;;;5028152;28;20391;-71
2021/04/01 00:54:53;;;;;;;13.65;9.85;;;;;;;;;;5014633;28;20401;-72
2021/04/01 00:57:19;;;;;;;15.75;9.70;;;;;;;;;;5012861;28;20433;-71
2021/04/01 00:59:45;;;;;;;12.25;9.57;;;;;;;;;;5019160;28;20403;-71
2021/04/01 01:02:12;;;;;;;13.68;9.55;;;;;;;;;;5027327;23;20439;-66
2021/04/01 01:04:39;;;;;;;13.80;9.30;;;;;;;;;;5028361;28;20400;-65
2021/04/01 01:07:05;;;;;;;12.88;8.95;;;;;;;;;;5025544;28;20878;-65
2021/04/01 01:09:31;;;;;;;14.48;9.10;;;;;;;;;;5032687;28;20414;-65
2021/04/01 01:11:58;;;;;;;12.13;8.85;;;;;;;;;;5033740;28;20486;-65
2021/04/01 01:14:24;;;;;;;13.02;9.07;;;;;;;;;;5032597;28;20845;-65
2021/04/01 01:16:50;;;;;;;12.35;9.02;;;;;;;;;;5033682;28;20481;-65
2021/04/01 01:19:17;;;;;;;14.50;8.95;;;;;;;;;;5033392;28;20886;-65
2021/04/01 01:21:44;;;;;;;14.15;9.45;;;;;;;;;;5034180;28;20429;-65
2021/04/01 01:24:12;;;;;;;14.20;8.70;;;;;;;;;;5033810;28;20805;-65
2021/04/01 01:26:39;;;;;;;12.30;9.05;;;;;;;;;;5037856;28;20411;-65
2021/04/01 01:29:05;;;;;;;12.15;8.40;;;;;;;;;;5029164;28;20432;-65
2021/04/01 01:31:32;;;;;;;13.15;8.85;;;;;;;;;;5033209;28;20395;-65
2021/04/01 01:33:58;;;;;;;13.63;8.75;;;;;;;;;;5055964;28;20410;-65
2021/04/01 01:36:24;;;;;;;14.32;9.10;;;;;;;;;;5032047;28;20463;-65
2021/04/01 01:38:50;;;;;;;13.10;8.47;;;;;;;;;;5033608;28;20897;-65
2021/04/01 01:41:17;;;;;;;12.10;8.32;;;;;;;;;;5033040;28;20415;-65
2021/04/01 01:43:44;;;;;;;13.07;8.43;;;;;;;;;;5048713;28;20412;-65
2021/04/01 01:46:10;;;;;;;10.87;8.10;;;;;;;;;;5033503;28;20406;-65
2021/04/01 01:48:36;;;;;;;11.50;8.15;;;;;;;;;;5031924;28;20403;-65
2021/04/01 01:51:02;;;;;;;10.07;7.85;;;;;;;;;;5048796;28;20442;-65
2021/04/01 01:53:29;;;;;;;11.73;8.17;;;;;;;;;;5032938;28;20399;-65
2021/04/01 01:55:55;;;;;;;10.05;7.45;;;;;;;;;;5039852;28;20401;-64
2021/04/01 01:58:22;;;;;;;11.75;7.88;;;;;;;;;;5036354;28;20399;-65
2021/04/01 02:00:50;;;;;;;11.05;7.88;;;;;;;;;;5033303;28;20485;-65
2021/04/01 02:03:16;;;;;;;10.98;7.55;;;;;;;;;;5032830;28;20461;-65
2021/04/01 02:05:43;;;;;;;11.15;7.88;;;;;;;;;;5031504;28;20406;-65
2021/04/01 02:08:10;;;;;;;10.88;7.50;;;;;;;;;;5033181;28;20403;-65
2021/04/01 02:10:37;;;;;;;13.90;8.07;;;;;;;;;;5032469;28;20395;-65
2021/04/01 02:13:04;;;;;;;11.90;7.93;;;;;;;;;;5033356;28;20398;-65
2021/04/01 02:15:32;;;;;;;11.75;7.63;;;;;;;;;;5046528;28;20480;-65
2021/04/01 02:18:05;;;;;;;12.10;8.02;;;;;;;;;;5031913;28;20407;-65
2021/04/01 02:20:38;;;;;;;10.13;7.65;;;;;;;;;;5032259;28;20487;-65
2021/04/01 02:23:04;;;;;;;10.63;7.57;;;;;;;;;;5032764;28;20401;-65
2021/04/01 02:25:30;;;;;;;11.13;8.07;;;;;;;;;;5032619;28;20886;-65
2021/04/01 02:27:57;;;;;;;11.90;8.23;;;;;;;;;;5032769;28;20421;-65
2021/04/01 02:30:23;;;;;;;13.48;7.85;;;;;;;;;;5031827;28;20406;-67
2021/04/01 02:32:53;;;;;;;12.13;8.25;;;;;;;;;;5032322;28;20391;-67
2021/04/01 02:35:20;;;;;;;11.13;7.83;;;;;;;;;;5032692;28;20897;-68
2021/04/01 02:37:46;;;;;;;12.75;7.75;;;;;;;;;;5030729;28;20412;-68
2021/04/01 02:40:13;;;;;;;12.15;7.95;;;;;;;;;;5032661;28;20482;-68
2021/04/01 02:42:39;;;;;;;11.43;8.00;;;;;;;;;;5030653;28;20472;-67
2021/04/01 02:45:06;;;;;;;12.23;8.10;;;;;;;;;;5032218;28;20406;-68
2021/04/01 02:47:32;;;;;;;10.35;7.47;;;;;;;;;;5032358;28;20426;-68
2021/04/01 02:49:59;;;;;;;11.18;8.15;;;;;;;;;;5031817;28;20442;-68
2021/04/01 02:52:25;;;;;;;12.85;7.85;;;;;;;;;;5032158;28;20423;-67
2021/04/01 02:54:51;;;;;;;11.43;8.45;;;;;;;;;;5031804;28;20401;-68
2021/04/01 02:57:18;;;;;;;11.20;8.40;;;;;;;;;;5030933;28;20403;-68
2021/04/01 02:59:45;;;;;;;11.20;7.78;;;;;;;;;;5031932;28;20409;-68
2021/04/01 03:02:11;;;;;;;12.30;7.43;;;;;;;;;;5031750;28;20447;-68
2021/04/01 03:04:38;;;;;;;11.90;7.30;;;;;;;;;;5032011;28;20391;-68
2021/04/01 03:07:06;;;;;;;9.73;7.13;;;;;;;;;;5031338;28;20801;-68
2021/04/01 03:09:32;;;;;;;10.52;7.60;;;;;;;;;;5031403;28;20399;-68
2021/04/01 03:11:58;;;;;;;12.50;8.10;;;;;;;;;;5031468;28;20398;-68
2021/04/01 03:14:24;;;;;;;10.55;7.30;;;;;;;;;;5032135;28;20449;-68
2021/04/01 03:16:50;;;;;;;12.75;7.93;;;;;;;;;;5031945;28;20474;-68
2021/04/01 03:19:17;;;;;;;10.00;7.83;;;;;;;;;;5045418;28;20405;-68
2021/04/01 03:21:43;;;;;;;9.63;7.53;;;25.90;47.80;;;;;;5043299;28;20413;-68
2021/04/01 03:24:12;;;;;;;14.80;8.07;;;16.20;72.40;;;;;;5033801;28;20460;-68
2021/04/01 03:26:38;;;;;;;10.35;7.63;;;16.00;71.30;;;;;;5031921;28;20411;-68
2021/04/01 03:29:05;;;;;;;11.40;7.88;;;16.10;70.70;;;;;;5031847;28;20481;-67
2021/04/01 03:31:31;;;;;;;10.88;7.50;;;16.10;70.90;;;;;;5030467;28;20399;-68
2021/04/01 03:33:57;;;;;;;8.93;7.07;;;;;;;;;;5031516;28;20395;-68
2021/04/01 03:36:23;;;;;;;10.23;7.30;;;15.90;71.50;;;;;;5030238;28;20739;-68
2021/04/01 03:38:49;;;;;;;9.65;6.78;;;15.70;72.20;;;;;;5031782;28;20394;-71
2021/04/01 03:41:17;;;;;;;11.38;7.20;;;15.60;72.40;;;;;;5027228;28;20839;-68
2021/04/01 03:43:43;;;;;;;9.95;7.80;;;15.60;72.50;;;;;;5021295;28;20403;-68
2021/04/01 03:46:10;;;;;;;11.73;7.13;;;15.70;71.60;;;;;;5031117;28;20409;-67
2021/04/01 03:48:36;;;;;;;10.43;7.57;;;15.90;71.10;;;;;;5031586;28;20390;-68
2021/04/01 03:51:03;;;;;;;11.32;7.43;;;15.90;70.70;;;;;;5031546;28;20391;-67
2021/04/01 03:53:29;;;;;;;10.70;7.20;;;16.00;70.50;;;;;;5031252;28;20397;-68
2021/04/01 03:55:55;;;;;;;10.68;7.18;;;15.90;70.80;;;;;;5031540;28;20782;-68
2021/04/01 04:03:45;;;;;;;13.57;8.07;;;16.00;70.50;;;;;;5030871;28;20917;-67
2021/04/01 04:11:24;;;;;;;11.30;6.68;;;15.70;71.40;;;;;;5031724;28;20478;-68
2021/04/01 04:16:17;;;;;;;12.35;7.25;;;15.70;70.50;;;;;;5031528;28;20402;-68
2021/04/01 04:18:44;;;;;;;7.78;6.80;;;15.60;71.10;;;;;;5031185;28;20466;-67
2021/04/01 04:21:10;;;;;;;11.20;7.47;;;;;;;;;;5028067;28;20423;-68
2021/04/01 04:23:40;;;;;;;8.70;7.07;;;;;;;;;;5023477;28;20496;-68
2021/04/01 04:26:07;;;;;;;11.40;7.65;;;;;;;;;;5021818;28;20398;-68
2021/04/01 04:28:34;;;;;;;10.02;6.80;;;;;;;;;;5024861;28;20487;-68
2021/04/01 04:31:01;;;;;;;10.05;6.80;;;;;;;;;;5032425;28;20402;-68
2021/04/01 04:33:28;;;;;;;10.20;6.15;;;;;;;;;;5034781;28;20933;-68
2021/04/01 04:35:54;;;;;;;12.43;7.00;;;;;;;;;;5021981;28;20400;-68
2021/04/01 04:38:20;;;;;;;9.68;6.63;;;;;;;;;;5033348;28;20411;-67
2021/04/01 04:40:47;;;;;;;9.77;6.60;;;;;;;;;;5022401;28;20404;-68
2021/04/01 04:43:13;;;;;;;9.85;6.60;;;;;;;;;;5031376;28;20402;-67
2021/04/01 04:45:40;;;;;;;9.95;6.93;;;;;;;;;;5034537;28;20398;-68
2021/04/01 04:48:07;;;;;;;9.48;6.78;;;;;;;;;;5034291;28;20403;-68
2021/04/01 04:50:34;;;;;;;10.20;7.03;;;;;;;;;;5034542;28;20438;-68
2021/04/01 04:53:00;;;;;;;11.65;7.40;;;;;;;;;;5034035;28;20892;-67
2021/04/01 04:55:27;;;;;;;9.47;7.20;;;;;;;;;;5034501;28;20391;-68
2021/04/01 05:05:37;;;;;;;10.80;6.85;;;;;;;;;;5034000;28;20373;-68
2021/04/01 05:08:04;;;;;;;9.73;6.55;;;;;;;;;;5041858;28;20862;-68
2021/04/01 05:10:30;;;;;;;11.48;6.72;;;;;;;;;;5032369;28;20408;-68
2021/04/01 05:15:31;;;;;;;9.45;6.60;;;;;;;;;;5033306;28;20413;-68
2021/04/01 05:18:13;;;;;;;9.95;6.55;;;;;;;;;;5033455;28;20882;-68
2021/04/01 05:20:40;;;;;;;9.60;7.05;;;;;;;;;;5034146;28;20805;-68
2021/04/01 05:23:13;;;;;;;9.43;6.93;;;;;;;;;;5032946;28;20450;-68
2021/04/01 05:25:40;;;;;;;8.23;5.70;;;;;;;;;;5032373;28;20450;-68
2021/04/01 05:28:21;;;;;;;11.13;6.20;;;;;;;;;;5033962;28;20452;-68
2021/04/01 05:30:47;;;;;;;7.90;6.43;;;;;;;;;;5033170;28;20395;-68
2021/04/01 05:33:15;;;;;;;8.57;6.57;;;;;;;;;;5045370;28;20403;-68
2021/04/01 05:35:42;;;;;;;10.23;6.17;;;;;;;;;;5033708;28;20431;-68
2021/04/01 05:38:09;;;;;;;10.40;6.07;;;;;;;;;;5033229;28;20435;-68
2021/04/01 05:40:35;;;;;;;10.33;6.20;;;;;;;;;;5033633;28;20403;-68
2021/04/01 05:43:06;;;;;;;10.90;6.55;;;;;;;;;;5031985;28;20449;-68
2021/04/01 05:45:45;;;;;;;9.85;6.60;;;;;;;;;;5032683;28;20474;-68
2021/04/01 05:48:26;;;;;;;8.38;6.25;;;;;;;;;;5033052;28;20490;-68
2021/04/01 06:07:12;;;;;;;11.55;6.57;;;16.00;68.60;;;;;;5032687;28;20898;-67
2021/04/01 06:09:44;;;;;;;10.27;6.15;;;16.00;68.10;;;;;;5024158;28;20904;-68
2021/04/01 06:12:11;;;;;;;9.50;6.72;;;16.00;67.80;;;;;;5030772;28;20391;-67
2021/04/01 06:15:03;;;;;;;9.77;5.93;;;16.00;68.80;;;;;;5029294;28;20390;-68
2021/04/01 06:17:31;;;;;;;9.20;6.07;;;16.00;67.70;;;;;;5014366;28;20410;-68
2021/04/01 06:19:59;;;;;;;12.15;6.60;;;16.10;67.90;;;;;;5029034;28;20732;-67
2021/04/01 06:22:27;;;;;;;9.10;6.15;;;16.00;68.10;;;;;;5030177;28;20418;-68
2021/04/01 06:24:55;;;;;;;8.43;5.50;;;15.90;67.80;;;;;;5030422;28;20443;-68
2021/04/01 06:27:31;;;;;;;12.88;5.80;;;;;;;;;;5029160;28;20406;-67
2021/04/01 06:32:46;;;;;;;8.93;5.88;;;16.40;66.50;;;;;;5031703;28;20418;-68
2021/04/01 06:35:19;;;;;;;7.15;5.70;;;16.60;66.80;;;;;;5031818;28;20397;-68
2021/04/01 06:40:24;;;;;;;9.57;5.70;;;16.60;66.60;;;;;;5029732;28;20407;-68
2021/04/01 06:42:56;;;;;;;11.48;5.75;;;16.60;66.80;;;;;;5030389;28;20454;-68
2021/04/01 06:45:24;;;;;;;11.57;5.95;;;16.60;66.60;;;;;;5028769;28;20395;-68
2021/04/01 06:47:51;;;;;;;8.82;5.95;;;16.70;66.20;;;;;;5025080;28;20451;-68
2021/04/01 06:50:33;;;;;;;11.35;5.82;;;16.70;65.90;;;;;;5032479;28;20770;-68
2021/04/01 06:53:11;;;;;;;7.93;5.83;;;16.90;65.30;;;;;;5030274;28;20418;-69
2021/04/01 06:55:50;;;;;;;8.13;5.60;;;17.00;65.60;;;;;;5024836;28;20802;-67
2021/04/01 06:58:44;;;;;;;8.50;5.95;;;17.20;63.70;;;;;;5030463;28;20502;-67
2021/04/01 07:01:25;;;;;;;8.98;5.32;;;17.20;63.90;;;;;;5032038;28;20898;-67
2021/04/01 07:03:59;;;;;;;7.60;5.30;;;17.30;63.60;;;;;;5026344;28;20491;-67
2021/04/01 07:06:30;;;;;;;10.32;5.68;;;17.40;63.40;;;;;;5026381;28;20395;-68
2021/04/01 07:09:05;;;;;;;11.25;6.05;;;17.30;64.70;;;;;;5024491;28;20399;-68
2021/04/01 07:14:05;;;;;;;8.63;5.50;;;17.40;64.10;;;;;;5035908;28;20418;-67
2021/04/01 07:35:56;;;;;;;7.55;4.70;;;;;;;;;;5031502;28;20430;-67
2021/04/01 07:46:50;;;;;;;10.43;5.22;;;;;;;;;;5019423;28;20908;-68
2021/04/01 07:49:23;;;;;;;7.88;5.35;;;18.30;61.50;;;;;;5031598;28;20402;-68
2021/04/01 07:51:58;;;;;;;8.10;4.88;;;18.50;59.60;;;;;;5043518;28;20901;-69
2021/04/01 07:54:38;;;;;;;11.00;5.65;;;18.60;59.60;;;;;;5031555;28;20447;-68
2021/04/01 08:00:17;;;;;;;7.70;4.80;;;;;;;;;;5019827;28;20745;-67
2021/04/01 08:05:14;;;;;;;7.00;4.95;;;;;;;;;;5034373;28;20410;-68
2021/04/01 08:07:48;;;;;;;7.97;5.43;;;18.80;60.10;;;;;;5035034;28;20409;-68
2021/04/01 08:10:17;;;;;;;9.48;5.18;;;19.40;59.80;;;;;;5034749;28;20406;-68
2021/04/01 08:12:49;;;;;;;10.90;5.35;;;;;;;;;;5035305;28;20797;-68
2021/04/01 08:15:23;;;;;;;9.27;5.13;;;;;;;;;;5035044;28;20494;-68
2021/04/01 08:17:57;;;;;;;9.80;4.97;;;;;;;;;;5035649;28;20874;-69
2021/04/01 08:20:30;;;;;;;8.77;5.03;;;;;;;;;;5034996;28;20403;-68
2021/04/01 08:23:10;;;;;;;10.13;5.90;;;19.50;59.30;;;;;;5035097;28;20943;-68
2021/04/01 08:26:01;;;;;;;9.32;5.00;;;20.20;58.00;;;;;;5034613;28;20478;-68
2021/04/01 08:36:02;;;;;;;13.93;7.17;;;;;;;;;;5034695;28;20481;-69
2021/04/01 08:38:29;;;;;;;13.82;6.65;;;;;;;;;;5034857;28;20399;-68
2021/04/01 08:41:01;;;;;;;11.77;6.90;;;;;;;;;;5033192;28;20413;-68
2021/04/01 08:44:00;;;;;;;13.93;6.22;;;20.60;55.90;;;;;;5023742;28;20399;-68
2021/04/01 08:46:44;;;;;;;13.27;6.82;;;;;;;;;;5033026;28;20403;-69
2021/04/01 08:49:32;;;;;;;12.73;7.20;;;21.40;55.70;;;;;;5033326;28;20403;-68
2021/04/01 08:52:14;;;;;;;12.25;7.20;;;;;;;;;;5018837;28;20420;-68
2021/04/01 08:54:42;;;;;;;14.18;7.75;;;21.60;56.30;;;;;;5031231;28;20403;-68
2021/04/01 08:57:12;;;;;;;18.42;8.95;;;21.90;54.50;;;;;;5034360;28;20395;-68
2021/04/01 08:59:54;;;;;;;14.52;8.43;;;21.80;54.20;;;;;;5020914;28;20469;-68
2021/04/01 09:02:22;;;;;;;17.17;8.82;;;21.70;59.70;;;;;;5024358;28;20817;-68
2021/04/01 09:04:50;;;;;;;18.75;9.07;;;;;;;;;;5046081;28;20465;-68
2021/04/01 09:07:20;;;;;;;17.00;7.80;;;;;;;;;;5034534;28;20411;-68
2021/04/01 09:09:50;;;;;;;16.37;9.70;;;;;;;;;;5034180;28;20445;-69
2021/04/01 09:12:20;;;;;;;20.93;9.60;;;;;;;;;;5033739;28;20422;-69
2021/04/01 09:14:57;;;;;;;18.25;9.98;;;;;;;;;;5034389;28;20391;-68
2021/04/01 09:17:28;;;;;;;17.92;10.23;;;;;;;;;;5032522;28;20407;-68
2021/04/01 09:19:54;;;;;;;23.15;11.30;;;;;;;;;;5032717;28;20403;-68
2021/04/01 09:22:21;;;;;;;20.77;11.27;;;;;;;;;;5032245;28;20524;-68
2021/04/01 09:24:52;;;;;;;19.30;11.20;;;;;;;;;;5033834;28;20452;-68
2021/04/01 09:27:19;;;;;;;19.13;10.80;;;21.90;57.90;;;;;;5032561;28;20492;-68
2021/04/01 09:29:45;;;;;;;19.65;10.38;;;23.10;54.20;;;;;;5032593;28;20407;-68
2021/04/01 09:32:13;;;;;;;24.08;10.90;;;22.80;54.70;;;;;;5033995;28;20437;-68
2021/04/01 09:34:44;;;;;;;19.92;10.85;;;22.90;55.00;;;;;;5032423;28;20482;-68
2021/04/01 09:37:17;;;;;;;18.30;10.93;;;22.90;56.90;;;;;;5032539;28;20831;-68
2021/04/01 09:39:44;;;;;;;17.73;10.40;;;;;;;;;;5033066;28;20391;-68
2021/04/01 09:42:11;;;;;;;22.67;11.87;;;;;;;;;;5031548;28;20424;-68
2021/04/01 09:44:48;;;;;;;21.58;10.77;;;;;;;;;;5019263;28;20395;-68
2021/04/01 09:47:18;;;;;;;19.15;11.00;;;;;;;;;;5033600;28;20399;-67
2021/04/01 09:49:47;;;;;;;25.45;11.45;;;;;;;;;;5033095;28;20486;-68
2021/04/01 09:52:14;;;;;;;23.20;11.80;;;;;;;;;;5024641;28;20404;-68
2021/04/01 09:54:43;;;;;;;21.83;11.83;;;;;;;;;;5029559;28;20445;-68
2021/04/01 09:57:10;;;;;;;22.15;11.57;;;;;;;;;;5033422;28;20399;-68
2021/04/01 09:59:47;;;;;;;21.52;11.40;;;;;;;;;;5033212;28;20399;-68
2021/04/01 10:02:20;;;;;;;23.65;12.10;;;;;;;;;;5025055;28;20426;-68
2021/04/01 10:04:47;;;;;;;23.15;12.25;;;;;;;;;;5033074;28;20807;-68
2021/04/01 10:07:14;;;;;;;21.25;12.25;;;;;;;;;;5024468;28;20443;-68
2021/04/01 10:09:50;;;;;;;22.15;12.35;;;;;;;;;;5030516;28;20403;-67
2021/04/01 10:12:20;;;;;;;18.38;10.18;;;;;;;;;;5029517;28;20404;-67
2021/04/01 10:14:51;;;;;;;17.05;10.02;;;;;;;;;;5030018;28;20910;-68
2021/04/01 10:17:19;;;;;;;24.95;11.38;;;;;;;;;;5030927;28;20399;-67
2021/04/01 10:19:48;;;;;;;31.70;13.77;;;;;;;;;;5030544;28;20609;-67
2021/04/01 10:22:19;;;;;;;20.20;11.07;;;;;;;;;;5024208;28;20479;-67
2021/04/01 10:24:46;;;;;;;20.15;10.98;;;;;;;;;;5034036;28;20746;-67
2021/04/01 10:27:35;;;;;;;21.52;12.63;;;;;;;;;;5032379;28;20403;-68
2021/04/01 10:30:02;;;;;;;20.15;11.73;;;;;;;;;;5025245;28;20399;-67
2021/04/01 10:32:43;;;;;;;17.02;10.00;;;;;;;;;;5019312;28;20918;-68
2021/04/01 10:35:12;;;;;;;24.42;13.25;;;;;;;;;;5028126;28;20400;-68
2021/04/01 10:37:46;;;;;;;22.75;13.57;;;;;;;;;;5030637;28;20944;-68
2021/04/01 10:40:13;;;;;;;23.95;12.63;;;;;;;;;;5029297;28;20426;-68
2021/04/01 10:42:42;;;;;;;24.15;13.60;;;;;;;;;;5030475;28;20451;-66
2021/04/01 10:45:12;;;;;;;25.88;12.93;;;;;;;;;;5032003;28;20424;-67
2021/04/01 10:47:50;;;;;;;25.73;14.73;;;;;;;;;;5028226;28;20399;-67
2021/04/01 10:50:18;;;;;;;31.38;14.80;;;;;;;;;;5028079;28;20909;-67
2021/04/01 10:52:44;;;;;;;27.00;15.07;;;;;;;;;;5025521;28;20422;-68
2021/04/01 10:55:12;;;;;;;23.60;13.20;;;;;;;;;;5029450;28;20832;-67
2021/04/01 10:57:38;;;;;;;23.40;13.82;;;;;;;;;;5029900;28;20736;-68
2021/04/01 11:00:08;;;;;;;25.40;13.63;;;;;;;;;;5031413;28;20399;-68
2021/04/01 11:02:36;;;;;;;25.92;13.90;;;23.00;55.80;;;;;;5029209;28;20426;-67
2021/04/01 11:05:04;;;;;;;25.60;13.43;;;;;;;;;;5029152;28;20961;-67
2021/04/01 11:07:42;;;;;;;23.07;14.07;;;;;;;;;;5026806;28;20511;-68
2021/04/01 11:10:10;;;;;;;23.10;13.63;;;;;;;;;;5029566;28;20494;-68
2021/04/01 11:12:37;;;;;;;26.00;14.57;;;;;;;;;;5030802;28;20413;-67
2021/04/01 11:15:04;;;;;;;24.42;14.15;;;;;;;;;;5027745;28;20414;-67
2021/04/01 11:17:37;;;;;;;23.15;13.18;;;;;;;;;;5030732;28;20866;-67
2021/04/01 11:20:04;;;;;;;26.17;13.80;;;;;;;;;;5030772;28;20391;-67
2021/04/01 11:22:31;;;;;;;22.77;13.55;;;;;;;;;;5029718;28;20426;-68
2021/04/01 11:24:58;;;;;;;23.98;12.52;;;;;;;;;;5028541;28;20455;-68
2021/04/01 11:27:24;;;;;;;23.45;14.30;;;;;;;;;;5029052;28;20439;-68
2021/04/01 11:29:51;;;;;;;22.85;12.93;;;;;;;;;;5032817;28;20767;-68
2021/04/01 11:32:20;;;;;;;25.15;13.38;;;;;;;;;;5030881;28;20433;-68
2021/04/01 11:34:47;;;;;;;24.50;13.27;;;;;;;;;;5034679;28;20889;-68
2021/04/01 11:37:17;;;;;;;21.52;13.38;;;24.50;53.90;;;;;;5034106;28;20446;-68
2021/04/01 11:39:45;;;;;;;22.45;12.27;;;;;;;;;;5035095;28;20391;-68
2021/04/01 11:42:12;;;;;;;21.80;12.48;;;;;;;;;;5034252;28;20993;-68
2021/04/01 11:44:39;;;;;;;22.90;12.93;;;;;;;;;;5035186;28;20495;-69
2021/04/01 11:47:12;;;;;;;26.38;14.18;;;;;;;;;;5030710;28;20419;-68
2021/04/01 11:49:38;;;;;;;22.25;13.40;;;;;;;;;;5034758;28;20402;-67
2021/04/01 11:52:07;;;;;;;28.30;14.02;;;;;;;;;;5035360;28;20413;-67
2021/04/01 11:54:33;;;;;;;25.08;13.35;;;25.40;52.70;;;;;;5035010;28;20395;-68
2021/04/01 11:57:00;;;;;;;25.55;14.02;;;25.70;52.50;;;;;;5032995;28;20905;-68
2021/04/01 11:59:35;;;;;;;25.23;13.00;;;25.50;50.70;;;;;;5039357;28;20410;-68
2021/04/01 12:02:06;;;;;;;21.58;12.52;;;25.60;52.10;;;;;;5034383;28;20411;-67
2021/04/01 12:04:35;;;;;;;23.92;12.38;;;25.80;51.00;;;;;;5023267;28;20792;-69
2021/04/01 12:07:04;;;;;;;21.20;11.63;;;26.10;51.80;;;;;;5032244;28;20448;-68
2021/04/01 12:09:30;;;;;;;25.57;14.17;;;25.90;51.70;;;;;;5032396;28;20406;-69
2021/04/01 12:11:56;;;;;;;19.52;11.75;;;26.00;49.60;;;;;;5025105;28;20385;-67
2021/04/01 12:14:33;;;;;;;20.23;12.18;;;26.20;84.90;;;;;;5025886;28;20383;-68
2021/04/01 12:17:00;;;;;;;22.45;11.98;;;;;;;;;;5022729;28;20425;-68
2021/04/01 12:19:26;;;;;;;22.90;13.07;;;26.30;50.20;;;;;;5025738;28;20419;-67
2021/04/01 12:21:52;;;;;;;24.23;12.75;;;26.80;48.40;;;;;;5029521;28;20890;-68
2021/04/01 12:24:19;;;;;;;22.35;12.27;;;26.80;48.80;;;;;;5030982;28;20399;-67
2021/04/01 12:26:46;;;;;;;23.20;13.02;;;26.30;48.90;;;;;;5029955;28;20415;-67
2021/04/01 12:29:12;;;;;;;22.20;12.07;;;26.20;49.70;;;;;;5030790;28;20411;-68
2021/04/01 12:31:41;;;;;;;24.55;12.25;;;26.40;50.80;;;;;;5030703;28;20958;-68
2021/04/01 12:34:13;;;;;;;23.48;12.85;;;26.40;49.60;;;;;;5026056;28;20785;-68
2021/04/01 12:36:41;;;;;;;22.65;14.02;;;26.80;52.00;;;;;;5024771;28;20465;-69
2021/04/01 12:39:07;;;;;;;21.98;12.95;;;26.30;48.20;;;;;;5019732;28;20430;-68
2021/04/01 12:41:35;;;;;;;23.00;12.67;;;26.00;49.20;;;;;;5028015;28;20919;-69
2021/04/01 12:44:01;;;;;;;22.35;12.25;;;25.70;50.90;;;;;;5027709;28;20913;-68
2021/04/01 12:46:36;;;;;;;19.05;11.48;;;25.80;49.50;;;;;;5030595;28;20399;-68
2021/04/01 12:49:03;;;;;;;22.08;12.00;;;26.30;50.40;;;;;;5032611;28;20390;-68
2021/04/01 12:51:41;;;;;;;20.02;11.82;;;;;;;;;;5029317;28;20476;-68
2021/04/01 12:54:13;;;;;;;21.92;12.27;;;;;;;;;;5031064;28;20391;-68
2021/04/01 12:56:45;;;;;;;21.27;10.65;;;;;;;;;;5031171;28;20890;-68
2021/04/01 12:59:23;;;;;;;18.10;10.75;;;;;;;;;;5030171;28;20415;-68
2021/04/01 13:01:53;;;;;;;20.33;10.55;;;;;;;;;;5030335;28;20419;-69
2021/04/01 13:04:23;;;;;;;17.77;10.93;;;26.70;50.10;;;;;;5027542;28;20937;-68
2021/04/01 13:11:47;;;;;;;23.83;12.25;;;28.60;45.30;;;;;;5030672;28;20391;-68
2021/04/01 13:14:14;;;;;;;22.08;11.93;;;28.50;43.90;;;;;;5031816;28;20457;-68
2021/04/01 13:16:40;;;;;;;20.80;11.13;;;28.00;44.90;;;;;;5030612;28;20399;-69
2021/04/01 13:19:07;;;;;;;21.08;10.70;;;28.00;44.60;;;;;;5029753;28;20407;-68
2021/04/01 13:21:52;;;;;;;24.98;12.02;;;;;;;;;;5029371;28;20404;-69
2021/04/01 13:24:31;;;;;;;24.23;12.82;;;;;;;;;;5030302;28;20406;-68
2021/04/01 13:26:57;;;;;;;18.73;10.27;;;;;;;;;;5031228;28;20402;-68
2021/04/01 13:29:25;;;;;;;19.38;10.70;;;;;;;;;;5030549;28;20398;-68
2021/04/01 13:31:59;;;;;;;22.33;11.03;;;;;;;;;;5031104;28;20490;-68
2021/04/01 13:34:30;;;;;;;26.85;10.65;;;;;;;;;;5031314;28;20398;-68
2021/04/01 13:39:36;;;;;;;24.47;12.10;;;;;;;;;;5030952;28;20816;-68
2021/04/01 13:42:12;;;;;;;22.42;10.48;;;;;;;;;;5030564;28;20514;-68
2021/04/01 13:45:06;;;;;;;20.42;11.25;;;;;;;;;;5030913;28;20476;-68
2021/04/01 13:47:27;;;;;;;21.98;10.63;;;;;;;;;;5030200;28;20426;-68
2021/04/01 13:49:55;;;;;;;20.90;10.53;;;;;;;;;;5030240;28;20497;-67
2021/04/01 13:52:30;;;;;;;18.88;10.82;;;;;;;;;;5030188;28;20395;-67
2021/04/01 13:55:06;;;;;;;17.73;10.35;;;;;;;;;;5030724;28;20495;-68
2021/04/01 14:10:59;;;;;;;23.08;12.00;;;;;;;;;;5029435;28;21007;-68
2021/04/01 14:13:28;;;;;;;22.15;10.68;;;;;;;;;;5029652;28;20395;-68
2021/04/01 14:15:54;;;;;;;20.23;11.45;;;;;;;;;;5030376;28;20877;-68
2021/04/01 14:18:20;;;;;;;25.80;13.18;;;;;;;;;;5030490;28;20897;-68
2021/04/01 14:20:47;;;;;;;20.40;11.05;;;;;;;;;;5029424;28;20422;-68
2021/04/01 14:23:19;;;;;;;20.15;11.07;;;28.20;43.60;;;;;;5029766;28;20422;-68
2021/04/01 14:25:46;;;;;;;16.48;8.25;;;28.00;45.60;;;;;;5030358;28;20403;-69
2021/04/01 14:28:12;;;;;;;16.75;8.63;;;28.00;41.30;;;;;;5031295;28;20488;-67
2021/04/01 14:30:38;;;;;;;19.77;9.10;;;28.10;41.20;;;;;;5027552;28;20906;-69
2021/04/01 14:33:05;;;;;;;22.63;11.35;;;28.40;42.50;;;;;;5030236;28;20398;-68
2021/04/01 14:35:32;;;;;;;23.73;11.25;;;28.00;42.40;;;;;;5030616;28;20970;-68
2021/04/01 14:38:05;;;;;;;26.42;13.00;;;27.60;43.30;;;;;;5028552;28;20415;-67
2021/04/01 14:40:45;;;;;;;18.80;9.75;;;27.50;42.60;;;;;;5027984;28;20489;-68
2021/04/01 14:44:46;;;;;;;22.27;11.73;;;27.30;42.50;;;;;;3629015;39;20870;-68
2021/04/01 14:47:12;;;;;;;20.30;11.32;;;28.00;42.70;;;;;;3627913;39;20587;-68
2021/04/01 14:49:39;;;;;;;17.30;9.98;;;28.00;43.10;;;;;;3627806;39;20439;-68
2021/04/01 14:52:05;;;;;;;16.92;9.70;;;28.10;42.20;;;;;;3622603;39;20900;-68
2021/04/01 14:54:33;;;;;;;16.40;9.20;;;;;;;;;;3623313;39;20403;-68
2021/04/01 14:57:07;;;;;;;15.77;9.32;;;;;;;;;;3627830;39;20645;-68
2021/04/01 14:59:39;;;;;;;17.83;9.30;;;28.50;41.10;;;;;;3627531;39;20720;-69
2021/04/01 15:02:07;;;;;;;17.75;8.70;;;;;;;;;;3627797;39;20423;-69
2021/04/01 15:04:33;;;;;;;12.50;7.47;;;;;;;;;;3626360;39;20512;-69
2021/04/01 15:07:00;;;;;;;13.07;6.93;;;;;;;;;;3626420;39;20458;-69
2021/04/01 15:09:27;;;;;;;17.25;8.00;;;;;;;;;;3623715;39;20400;-69
2021/04/01 15:11:54;;;;;;;13.55;7.72;;;;;;;;;;3622896;39;20458;-69
2021/04/01 15:14:20;;;;;;;16.20;6.45;;;27.70;41.20;;;;;;3627131;39;20435;-69
2021/04/01 15:16:46;;;;;;;12.40;5.72;;;27.10;36.70;;;;;;3628000;39;20428;-69
2021/04/01 15:19:13;;;;;;;12.57;6.32;;;27.10;37.70;;;;;;3627249;39;20438;-69
2021/04/01 15:21:40;;;;;;;12.82;6.10;;;;;;;;;;3627664;39;20396;-69
2021/04/01 15:24:07;;;;;;;14.23;6.57;;;;;;;;;;3625846;39;20516;-69
2021/04/01 15:26:33;;;;;;;13.40;6.80;;;;;;;;;;3628370;39;20427;-69
2021/04/01 15:28:59;;;;;;;12.65;6.43;;;;;;;;;;3627522;39;20511;-69
2021/04/01 15:31:26;;;;;;;12.73;6.50;;;;;;;;;;3627231;39;20427;-69
2021/04/01 15:33:52;;;;;;;13.93;6.97;;;27.30;38.10;;;;;;3622484;39;20504;-69
2021/04/01 15:36:20;;;;;;;16.00;7.03;;;;;;;;;;3626992;39;20465;-69
2021/04/01 15:38:46;;;;;;;13.65;6.95;;;;;;;;;;3626876;39;20497;-69
2021/04/01 15:41:12;;;;;;;13.82;6.55;;;;;;;;;;3622446;39;20419;-69
2021/04/01 15:43:39;;;;;;;15.00;7.15;;;;;;;;;;3626251;39;20470;-69
2021/04/01 15:46:05;;;;;;;13.73;6.55;;;;;;;;;;3627251;39;20449;-68
2021/04/01 15:48:34;;;;;;;12.95;5.45;;;;;;;;;;3625183;39;20445;-69
2021/04/01 15:51:00;;;;;;;10.90;5.25;;;;;;;;;;3627427;39;20517;-68